sensor_id;sensor_type;location;lat;lon;timestamp;P1;durP1;ratioP1;P2;durP2;ratioP2
65477;SDS011;53678;39.642;22.430;2023-03-01T00:00:37;30.67;;;14.48;;
65477;SDS011;53678;39.642;22.430;2023-03-01T00:03:02;29.73;;;14.48;;
65477;SDS011;53678;39.642;22.430;2023-03-01T00:05:28;28.13;;;14.57;;
65477;SDS011;53678;39.642;22.430;2023-03-01T00:07:54;35.67;;;15.32;;
65477;SDS011;53678;39.642;22.430;2023-03-01T00:10:19;35.00;;;14.10;;
65477;SDS011;53678;39.642;22.430;2023-03-01T00:12:45;33.08;;;12.70;;
65477;SDS011;53678;39.642;22.430;2023-03-01T00:15:11;36.40;;;12.77;;
65477;SDS011;53678;39.642;22.430;2023-03-01T00:17:37;39.58;;;13.35;;
65477;SDS011;53678;39.642;22.430;2023-03-01T00:20:03;27.15;;;11.55;;
65477;SDS011;53678;39.642;22.430;2023-03-01T00:22:33;34.88;;;12.93;;
65477;SDS011;53678;39.642;22.430;2023-03-01T00:24:59;33.28;;;12.85;;
65477;SDS011;53678;39.642;22.430;2023-03-01T00:27:24;33.72;;;12.13;;
65477;SDS011;53678;39.642;22.430;2023-03-01T00:29:50;28.67;;;12.27;;
65477;SDS011;53678;39.642;22.430;2023-03-01T00:32:17;32.47;;;12.73;;
65477;SDS011;53678;39.642;22.430;2023-03-01T00:34:43;31.63;;;12.50;;
65477;SDS011;53678;39.642;22.430;2023-03-01T00:37:22;29.42;;;12.07;;
65477;SDS011;53678;39.642;22.430;2023-03-01T00:39:49;26.10;;;12.32;;
65477;SDS011;53678;39.642;22.430;2023-03-01T00:42:15;32.15;;;12.30;;
65477;SDS011;53678;39.642;22.430;2023-03-01T00:44:41;31.05;;;12.75;;
65477;SDS011;53678;39.642;22.430;2023-03-01T00:47:07;36.95;;;12.35;;
65477;SDS011;53678;39.642;22.430;2023-03-01T00:49:34;24.05;;;11.88;;
65477;SDS011;53678;39.642;22.430;2023-03-01T00:51:59;39.08;;;12.52;;
65477;SDS011;53678;39.642;22.430;2023-03-01T00:54:25;29.85;;;11.88;;
65477;SDS011;53678;39.642;22.430;2023-03-01T00:56:51;35.53;;;11.80;;
65477;SDS011;53678;39.642;22.430;2023-03-01T00:59:17;34.63;;;12.68;;
65477;SDS011;53678;39.642;22.430;2023-03-01T01:01:42;33.72;;;12.68;;
65477;SDS011;53678;39.642;22.430;2023-03-01T01:04:10;24.45;;;11.82;;
65477;SDS011;53678;39.642;22.430;2023-03-01T01:06:38;25.45;;;11.15;;
65477;SDS011;53678;39.642;22.430;2023-03-01T01:09:09;47.67;;;14.20;;
65477;SDS011;53678;39.642;22.430;2023-03-01T01:11:42;37.40;;;12.77;;
65477;SDS011;53678;39.642;22.430;2023-03-01T01:14:13;31.42;;;11.88;;
65477;SDS011;53678;39.642;22.430;2023-03-01T01:16:39;31.17;;;11.43;;
65477;SDS011;53678;39.642;22.430;2023-03-01T01:19:05;30.08;;;12.27;;
65477;SDS011;53678;39.642;22.430;2023-03-01T01:21:31;29.33;;;13.80;;
65477;SDS011;53678;39.642;22.430;2023-03-01T01:23:57;29.45;;;13.70;;
65477;SDS011;53678;39.642;22.430;2023-03-01T01:26:30;36.83;;;14.65;;
65477;SDS011;53678;39.642;22.430;2023-03-01T01:28:58;30.73;;;14.07;;
65477;SDS011;53678;39.642;22.430;2023-03-01T01:31:25;33.28;;;13.27;;
65477;SDS011;53678;39.642;22.430;2023-03-01T01:33:52;28.55;;;12.80;;
65477;SDS011;53678;39.642;22.430;2023-03-01T01:36:18;32.00;;;13.35;;
65477;SDS011;53678;39.642;22.430;2023-03-01T01:38:44;27.15;;;12.60;;
65477;SDS011;53678;39.642;22.430;2023-03-01T01:41:10;27.77;;;13.27;;
65477;SDS011;53678;39.642;22.430;2023-03-01T01:43:38;29.23;;;14.23;;
65477;SDS011;53678;39.642;22.430;2023-03-01T01:52:14;26.50;;;12.18;;
65477;SDS011;53678;39.642;22.430;2023-03-01T01:57:37;34.15;;;12.90;;
65477;SDS011;53678;39.642;22.430;2023-03-01T02:00:08;24.48;;;13.38;;
65477;SDS011;53678;39.642;22.430;2023-03-01T02:02:38;33.22;;;12.55;;
65477;SDS011;53678;39.642;22.430;2023-03-01T02:05:09;30.13;;;12.43;;
65477;SDS011;53678;39.642;22.430;2023-03-01T02:07:40;33.35;;;11.65;;
65477;SDS011;53678;39.642;22.430;2023-03-01T02:10:07;26.73;;;11.85;;
65477;SDS011;53678;39.642;22.430;2023-03-01T02:12:34;28.88;;;12.75;;
65477;SDS011;53678;39.642;22.430;2023-03-01T02:15:01;25.77;;;11.25;;
65477;SDS011;53678;39.642;22.430;2023-03-01T02:17:26;20.83;;;10.95;;
65477;SDS011;53678;39.642;22.430;2023-03-01T02:20:04;26.60;;;11.10;;
65477;SDS011;53678;39.642;22.430;2023-03-01T02:22:41;29.88;;;10.77;;
65477;SDS011;53678;39.642;22.430;2023-03-01T02:30:33;24.05;;;9.88;;
65477;SDS011;53678;39.642;22.430;2023-03-01T02:32:59;26.02;;;9.57;;
65477;SDS011;53678;39.642;22.430;2023-03-01T02:35:37;18.60;;;9.52;;
65477;SDS011;53678;39.642;22.430;2023-03-01T02:38:06;23.55;;;10.10;;
65477;SDS011;53678;39.642;22.430;2023-03-01T02:40:34;17.90;;;8.45;;
65477;SDS011;53678;39.642;22.430;2023-03-01T02:43:03;21.08;;;10.10;;
65477;SDS011;53678;39.642;22.430;2023-03-01T02:45:31;17.52;;;10.05;;
65477;SDS011;53678;39.642;22.430;2023-03-01T02:47:58;21.50;;;9.48;;
65477;SDS011;53678;39.642;22.430;2023-03-01T02:55:26;16.98;;;9.05;;
65477;SDS011;53678;39.642;22.430;2023-03-01T02:57:53;27.15;;;9.13;;
65477;SDS011;53678;39.642;22.430;2023-03-01T03:00:29;27.92;;;9.35;;
65477;SDS011;53678;39.642;22.430;2023-03-01T03:02:59;25.92;;;9.68;;
65477;SDS011;53678;39.642;22.430;2023-03-01T03:05:29;26.83;;;10.32;;
65477;SDS011;53678;39.642;22.430;2023-03-01T03:07:57;19.50;;;9.73;;
65477;SDS011;53678;39.642;22.430;2023-03-01T03:10:30;23.20;;;10.82;;
65477;SDS011;53678;39.642;22.430;2023-03-01T03:13:03;22.58;;;10.52;;
65477;SDS011;53678;39.642;22.430;2023-03-01T03:18:01;34.53;;;9.88;;
65477;SDS011;53678;39.642;22.430;2023-03-01T03:20:28;22.30;;;10.57;;
65477;SDS011;53678;39.642;22.430;2023-03-01T03:22:55;30.83;;;12.45;;
65477;SDS011;53678;39.642;22.430;2023-03-01T03:25:22;24.35;;;12.07;;
65477;SDS011;53678;39.642;22.430;2023-03-01T03:27:50;27.42;;;11.52;;
65477;SDS011;53678;39.642;22.430;2023-03-01T03:30:22;29.65;;;12.23;;
65477;SDS011;53678;39.642;22.430;2023-03-01T03:32:50;27.83;;;12.55;;
65477;SDS011;53678;39.642;22.430;2023-03-01T03:35:19;44.00;;;14.52;;
65477;SDS011;53678;39.642;22.430;2023-03-01T03:37:47;48.60;;;15.20;;
65477;SDS011;53678;39.642;22.430;2023-03-01T03:40:31;57.45;;;18.65;;
65477;SDS011;53678;39.642;22.430;2023-03-01T03:43:02;37.35;;;13.80;;
65477;SDS011;53678;39.642;22.430;2023-03-01T03:45:29;34.75;;;12.63;;
65477;SDS011;53678;39.642;22.430;2023-03-01T03:47:55;19.17;;;11.25;;
65477;SDS011;53678;39.642;22.430;2023-03-01T03:50:20;38.38;;;14.20;;
65477;SDS011;53678;39.642;22.430;2023-03-01T03:52:46;33.35;;;14.52;;
65477;SDS011;53678;39.642;22.430;2023-03-01T03:55:12;18.98;;;9.73;;
65477;SDS011;53678;39.642;22.430;2023-03-01T03:57:39;16.17;;;9.43;;
65477;SDS011;53678;39.642;22.430;2023-03-01T04:00:07;35.22;;;11.65;;
65477;SDS011;53678;39.642;22.430;2023-03-01T04:02:43;31.75;;;10.75;;
65477;SDS011;53678;39.642;22.430;2023-03-01T04:05:11;39.33;;;11.32;;
65477;SDS011;53678;39.642;22.430;2023-03-01T04:07:39;26.20;;;13.18;;
65477;SDS011;53678;39.642;22.430;2023-03-01T04:10:10;44.90;;;13.55;;
65477;SDS011;53678;39.642;22.430;2023-03-01T04:12:38;26.92;;;13.05;;
65477;SDS011;53678;39.642;22.430;2023-03-01T04:15:05;44.78;;;20.67;;
65477;SDS011;53678;39.642;22.430;2023-03-01T04:17:45;50.72;;;24.00;;
65477;SDS011;53678;39.642;22.430;2023-03-01T04:20:13;35.63;;;18.17;;
65477;SDS011;53678;39.642;22.430;2023-03-01T04:22:42;29.08;;;14.23;;
65477;SDS011;53678;39.642;22.430;2023-03-01T04:25:12;30.88;;;13.27;;
65477;SDS011;53678;39.642;22.430;2023-03-01T04:27:39;57.33;;;15.68;;
65477;SDS011;53678;39.642;22.430;2023-03-01T04:30:06;30.73;;;14.55;;
65477;SDS011;53678;39.642;22.430;2023-03-01T04:32:33;31.67;;;14.20;;
65477;SDS011;53678;39.642;22.430;2023-03-01T04:34:59;30.33;;;13.60;;
65477;SDS011;53678;39.642;22.430;2023-03-01T04:37:25;33.28;;;13.73;;
65477;SDS011;53678;39.642;22.430;2023-03-01T04:39:51;23.65;;;13.32;;
65477;SDS011;53678;39.642;22.430;2023-03-01T04:42:17;34.42;;;14.60;;
65477;SDS011;53678;39.642;22.430;2023-03-01T04:44:43;58.03;;;16.25;;
65477;SDS011;53678;39.642;22.430;2023-03-01T04:47:09;44.90;;;14.82;;
65477;SDS011;53678;39.642;22.430;2023-03-01T04:49:35;58.30;;;15.35;;
65477;SDS011;53678;39.642;22.430;2023-03-01T04:52:01;40.38;;;14.50;;
65477;SDS011;53678;39.642;22.430;2023-03-01T04:54:27;42.70;;;15.13;;
65477;SDS011;53678;39.642;22.430;2023-03-01T04:56:54;40.28;;;15.07;;
65477;SDS011;53678;39.642;22.430;2023-03-01T04:59:20;33.50;;;14.25;;
65477;SDS011;53678;39.642;22.430;2023-03-01T05:01:49;39.78;;;14.43;;
65477;SDS011;53678;39.642;22.430;2023-03-01T05:04:16;42.03;;;16.75;;
65477;SDS011;53678;39.642;22.430;2023-03-01T05:06:41;61.80;;;17.02;;
65477;SDS011;53678;39.642;22.430;2023-03-01T05:09:07;73.72;;;16.98;;
65477;SDS011;53678;39.642;22.430;2023-03-01T05:11:33;55.17;;;17.75;;
65477;SDS011;53678;39.642;22.430;2023-03-01T05:14:01;40.05;;;15.05;;
65477;SDS011;53678;39.642;22.430;2023-03-01T05:16:28;33.50;;;14.95;;
65477;SDS011;53678;39.642;22.430;2023-03-01T05:18:55;43.00;;;15.25;;
65477;SDS011;53678;39.642;22.430;2023-03-01T05:21:22;46.28;;;15.30;;
65477;SDS011;53678;39.642;22.430;2023-03-01T05:23:48;61.97;;;15.90;;
65477;SDS011;53678;39.642;22.430;2023-03-01T05:26:14;47.42;;;16.25;;
65477;SDS011;53678;39.642;22.430;2023-03-01T05:28:42;46.97;;;16.05;;
65477;SDS011;53678;39.642;22.430;2023-03-01T05:31:08;43.45;;;15.55;;
65477;SDS011;53678;39.642;22.430;2023-03-01T05:33:37;33.53;;;14.23;;
65477;SDS011;53678;39.642;22.430;2023-03-01T05:36:05;44.33;;;14.75;;
65477;SDS011;53678;39.642;22.430;2023-03-01T05:38:32;26.02;;;12.63;;
65477;SDS011;53678;39.642;22.430;2023-03-01T05:40:58;34.35;;;12.85;;
65477;SDS011;53678;39.642;22.430;2023-03-01T05:43:24;27.27;;;13.80;;
65477;SDS011;53678;39.642;22.430;2023-03-01T05:45:49;45.33;;;14.88;;
65477;SDS011;53678;39.642;22.430;2023-03-01T05:48:15;33.63;;;14.85;;
65477;SDS011;53678;39.642;22.430;2023-03-01T05:50:41;41.33;;;16.23;;
65477;SDS011;53678;39.642;22.430;2023-03-01T05:53:12;40.72;;;14.65;;
65477;SDS011;53678;39.642;22.430;2023-03-01T05:55:40;37.45;;;15.48;;
65477;SDS011;53678;39.642;22.430;2023-03-01T05:58:07;63.67;;;17.15;;
65477;SDS011;53678;39.642;22.430;2023-03-01T06:00:36;48.00;;;16.67;;
65477;SDS011;53678;39.642;22.430;2023-03-01T06:03:02;49.95;;;17.33;;
65477;SDS011;53678;39.642;22.430;2023-03-01T06:05:28;68.28;;;19.52;;
65477;SDS011;53678;39.642;22.430;2023-03-01T06:07:54;52.88;;;17.15;;
65477;SDS011;53678;39.642;22.430;2023-03-01T06:10:21;49.60;;;16.15;;
65477;SDS011;53678;39.642;22.430;2023-03-01T06:12:47;55.60;;;16.65;;
65477;SDS011;53678;39.642;22.430;2023-03-01T06:15:14;64.80;;;16.48;;
65477;SDS011;53678;39.642;22.430;2023-03-01T06:17:42;40.42;;;15.10;;
65477;SDS011;53678;39.642;22.430;2023-03-01T06:20:10;28.13;;;14.52;;
65477;SDS011;53678;39.642;22.430;2023-03-01T06:22:42;30.50;;;13.25;;
65477;SDS011;53678;39.642;22.430;2023-03-01T06:25:08;28.30;;;12.32;;
65477;SDS011;53678;39.642;22.430;2023-03-01T06:27:35;27.55;;;12.40;;
65477;SDS011;53678;39.642;22.430;2023-03-01T06:30:01;41.65;;;13.77;;
65477;SDS011;53678;39.642;22.430;2023-03-01T06:32:27;46.13;;;13.73;;
65477;SDS011;53678;39.642;22.430;2023-03-01T06:34:52;43.92;;;12.98;;
65477;SDS011;53678;39.642;22.430;2023-03-01T06:37:18;25.15;;;10.95;;
65477;SDS011;53678;39.642;22.430;2023-03-01T06:39:43;25.38;;;11.10;;
65477;SDS011;53678;39.642;22.430;2023-03-01T06:42:09;25.40;;;12.25;;
65477;SDS011;53678;39.642;22.430;2023-03-01T06:44:36;22.70;;;12.45;;
65477;SDS011;53678;39.642;22.430;2023-03-01T06:47:02;37.50;;;12.73;;
65477;SDS011;53678;39.642;22.430;2023-03-01T06:49:28;30.20;;;12.23;;
65477;SDS011;53678;39.642;22.430;2023-03-01T06:51:54;38.28;;;12.65;;
65477;SDS011;53678;39.642;22.430;2023-03-01T06:54:20;34.45;;;14.10;;
65477;SDS011;53678;39.642;22.430;2023-03-01T06:56:47;26.40;;;11.65;;
65477;SDS011;53678;39.642;22.430;2023-03-01T06:59:14;26.85;;;12.48;;
65477;SDS011;53678;39.642;22.430;2023-03-01T07:01:40;33.13;;;13.98;;
65477;SDS011;53678;39.642;22.430;2023-03-01T07:04:05;27.75;;;11.75;;
65477;SDS011;53678;39.642;22.430;2023-03-01T07:06:31;29.15;;;12.57;;
65477;SDS011;53678;39.642;22.430;2023-03-01T07:08:58;32.42;;;11.27;;
65477;SDS011;53678;39.642;22.430;2023-03-01T07:11:23;35.97;;;14.05;;
65477;SDS011;53678;39.642;22.430;2023-03-01T07:13:51;29.45;;;10.80;;
65477;SDS011;53678;39.642;22.430;2023-03-01T07:16:17;21.70;;;10.43;;
65477;SDS011;53678;39.642;22.430;2023-03-01T07:18:43;18.98;;;9.18;;
65477;SDS011;53678;39.642;22.430;2023-03-01T07:21:09;24.55;;;8.25;;
65477;SDS011;53678;39.642;22.430;2023-03-01T07:23:37;15.85;;;8.98;;
65477;SDS011;53678;39.642;22.430;2023-03-01T07:26:03;29.88;;;9.02;;
65477;SDS011;53678;39.642;22.430;2023-03-01T07:28:29;20.33;;;8.68;;
65477;SDS011;53678;39.642;22.430;2023-03-01T07:31:00;18.70;;;8.10;;
65477;SDS011;53678;39.642;22.430;2023-03-01T07:33:29;14.73;;;7.93;;
65477;SDS011;53678;39.642;22.430;2023-03-01T07:35:58;24.45;;;9.65;;
65477;SDS011;53678;39.642;22.430;2023-03-01T07:38:26;28.20;;;9.90;;
65477;SDS011;53678;39.642;22.430;2023-03-01T07:40:52;23.55;;;9.60;;
65477;SDS011;53678;39.642;22.430;2023-03-01T07:43:18;19.23;;;9.23;;
65477;SDS011;53678;39.642;22.430;2023-03-01T07:45:44;16.38;;;8.52;;
65477;SDS011;53678;39.642;22.430;2023-03-01T07:48:10;18.60;;;7.70;;
65477;SDS011;53678;39.642;22.430;2023-03-01T07:50:35;23.00;;;8.80;;
65477;SDS011;53678;39.642;22.430;2023-03-01T07:53:01;38.03;;;10.80;;
65477;SDS011;53678;39.642;22.430;2023-03-01T07:55:27;15.77;;;6.07;;
65477;SDS011;53678;39.642;22.430;2023-03-01T07:57:53;13.48;;;7.15;;
65477;SDS011;53678;39.642;22.430;2023-03-01T08:00:19;23.45;;;9.43;;
65477;SDS011;53678;39.642;22.430;2023-03-01T08:02:45;15.15;;;7.90;;
65477;SDS011;53678;39.642;22.430;2023-03-01T08:05:11;20.48;;;8.07;;
65477;SDS011;53678;39.642;22.430;2023-03-01T08:07:36;18.48;;;7.30;;
65477;SDS011;53678;39.642;22.430;2023-03-01T08:10:02;23.63;;;8.98;;
65477;SDS011;53678;39.642;22.430;2023-03-01T08:12:28;27.83;;;8.93;;
65477;SDS011;53678;39.642;22.430;2023-03-01T08:14:54;15.48;;;7.82;;
65477;SDS011;53678;39.642;22.430;2023-03-01T08:17:20;13.10;;;5.82;;
65477;SDS011;53678;39.642;22.430;2023-03-01T08:19:45;17.48;;;7.45;;
65477;SDS011;53678;39.642;22.430;2023-03-01T08:22:11;14.48;;;6.72;;
65477;SDS011;53678;39.642;22.430;2023-03-01T08:24:37;13.43;;;6.65;;
65477;SDS011;53678;39.642;22.430;2023-03-01T08:27:03;18.95;;;7.05;;
65477;SDS011;53678;39.642;22.430;2023-03-01T08:29:32;12.77;;;6.13;;
65477;SDS011;53678;39.642;22.430;2023-03-01T08:31:58;14.25;;;6.88;;
65477;SDS011;53678;39.642;22.430;2023-03-01T08:34:25;19.27;;;7.40;;
65477;SDS011;53678;39.642;22.430;2023-03-01T08:36:51;18.45;;;7.55;;
65477;SDS011;53678;39.642;22.430;2023-03-01T08:39:18;18.77;;;7.72;;
65477;SDS011;53678;39.642;22.430;2023-03-01T08:41:45;13.75;;;6.47;;
65477;SDS011;53678;39.642;22.430;2023-03-01T08:44:12;14.68;;;6.72;;
65477;SDS011;53678;39.642;22.430;2023-03-01T08:46:41;17.27;;;8.07;;
65477;SDS011;53678;39.642;22.430;2023-03-01T08:49:09;17.45;;;7.60;;
65477;SDS011;53678;39.642;22.430;2023-03-01T08:51:37;20.45;;;8.63;;
65477;SDS011;53678;39.642;22.430;2023-03-01T08:54:04;19.23;;;8.88;;
65477;SDS011;53678;39.642;22.430;2023-03-01T08:56:38;24.20;;;8.73;;
65477;SDS011;53678;39.642;22.430;2023-03-01T08:59:04;18.58;;;9.25;;
65477;SDS011;53678;39.642;22.430;2023-03-01T09:01:30;21.42;;;8.35;;
65477;SDS011;53678;39.642;22.430;2023-03-01T09:03:55;21.38;;;8.48;;
65477;SDS011;53678;39.642;22.430;2023-03-01T09:06:21;17.08;;;8.32;;
65477;SDS011;53678;39.642;22.430;2023-03-01T09:08:47;17.35;;;8.05;;
65477;SDS011;53678;39.642;22.430;2023-03-01T09:11:17;18.52;;;8.15;;
65477;SDS011;53678;39.642;22.430;2023-03-01T09:13:45;16.42;;;8.40;;
65477;SDS011;53678;39.642;22.430;2023-03-01T09:16:12;18.38;;;8.32;;
65477;SDS011;53678;39.642;22.430;2023-03-01T09:18:40;20.50;;;8.57;;
65477;SDS011;53678;39.642;22.430;2023-03-01T09:21:09;25.52;;;9.45;;
65477;SDS011;53678;39.642;22.430;2023-03-01T09:23:37;19.58;;;9.10;;
65477;SDS011;53678;39.642;22.430;2023-03-01T09:26:09;17.60;;;8.40;;
65477;SDS011;53678;39.642;22.430;2023-03-01T09:28:38;17.70;;;7.85;;
65477;SDS011;53678;39.642;22.430;2023-03-01T09:31:06;22.15;;;9.07;;
65477;SDS011;53678;39.642;22.430;2023-03-01T09:33:32;25.70;;;9.27;;
65477;SDS011;53678;39.642;22.430;2023-03-01T09:35:59;13.43;;;7.75;;
65477;SDS011;53678;39.642;22.430;2023-03-01T09:38:26;19.50;;;8.38;;
65477;SDS011;53678;39.642;22.430;2023-03-01T09:40:52;14.48;;;7.85;;
65477;SDS011;53678;39.642;22.430;2023-03-01T09:43:40;16.10;;;8.50;;
65477;SDS011;53678;39.642;22.430;2023-03-01T09:46:22;18.30;;;8.05;;
65477;SDS011;53678;39.642;22.430;2023-03-01T09:49:01;15.80;;;7.75;;
65477;SDS011;53678;39.642;22.430;2023-03-01T09:51:35;19.00;;;7.95;;
65477;SDS011;53678;39.642;22.430;2023-03-01T09:54:04;15.82;;;7.68;;
65477;SDS011;53678;39.642;22.430;2023-03-01T09:56:37;19.55;;;8.80;;
65477;SDS011;53678;39.642;22.430;2023-03-01T10:01:59;21.75;;;9.23;;
65477;SDS011;53678;39.642;22.430;2023-03-01T10:09:40;24.00;;;9.57;;
65477;SDS011;53678;39.642;22.430;2023-03-01T10:12:18;17.88;;;8.52;;
65477;SDS011;53678;39.642;22.430;2023-03-01T10:20:23;17.40;;;8.90;;
65477;SDS011;53678;39.642;22.430;2023-03-01T10:23:02;17.05;;;8.32;;
65477;SDS011;53678;39.642;22.430;2023-03-01T10:25:36;17.45;;;8.90;;
65477;SDS011;53678;39.642;22.430;2023-03-01T10:28:18;18.83;;;8.93;;
65477;SDS011;53678;39.642;22.430;2023-03-01T10:30:50;15.05;;;8.88;;
65477;SDS011;53678;39.642;22.430;2023-03-01T10:35:50;16.98;;;9.13;;
65477;SDS011;53678;39.642;22.430;2023-03-01T10:38:17;14.70;;;8.18;;
65477;SDS011;53678;39.642;22.430;2023-03-01T10:43:46;16.98;;;9.13;;
65477;SDS011;53678;39.642;22.430;2023-03-01T10:46:27;16.20;;;8.35;;
65477;SDS011;53678;39.642;22.430;2023-03-01T10:51:42;20.50;;;9.18;;
65477;SDS011;53678;39.642;22.430;2023-03-01T10:56:54;21.10;;;9.63;;
65477;SDS011;53678;39.642;22.430;2023-03-01T10:59:22;25.52;;;11.77;;
65477;SDS011;53678;39.642;22.430;2023-03-01T11:02:15;22.83;;;10.75;;
65477;SDS011;53678;39.642;22.430;2023-03-01T11:05:01;18.05;;;9.10;;
65477;SDS011;53678;39.642;22.430;2023-03-01T11:07:50;22.30;;;9.80;;
65477;SDS011;53678;39.642;22.430;2023-03-01T11:10:24;18.85;;;9.05;;
65477;SDS011;53678;39.642;22.430;2023-03-01T11:12:52;19.13;;;9.68;;
65477;SDS011;53678;39.642;22.430;2023-03-01T11:15:23;21.70;;;9.65;;
65477;SDS011;53678;39.642;22.430;2023-03-01T11:17:54;19.17;;;9.25;;
65477;SDS011;53678;39.642;22.430;2023-03-01T11:20:34;19.05;;;8.70;;
65477;SDS011;53678;39.642;22.430;2023-03-01T11:23:05;16.05;;;8.90;;
65477;SDS011;53678;39.642;22.430;2023-03-01T11:25:36;16.10;;;8.50;;
65477;SDS011;53678;39.642;22.430;2023-03-01T11:28:24;19.23;;;10.30;;
65477;SDS011;53678;39.642;22.430;2023-03-01T11:31:09;18.85;;;9.63;;
65477;SDS011;53678;39.642;22.430;2023-03-01T11:33:53;28.65;;;13.60;;
65477;SDS011;53678;39.642;22.430;2023-03-01T11:42:19;21.42;;;8.93;;
65477;SDS011;53678;39.642;22.430;2023-03-01T11:44:52;28.52;;;12.57;;
65477;SDS011;53678;39.642;22.430;2023-03-01T11:50:32;22.15;;;9.90;;
65477;SDS011;53678;39.642;22.430;2023-03-01T12:32:00;22.75;;;9.82;;
65477;SDS011;53678;39.642;22.430;2023-03-01T12:37:25;18.58;;;9.90;;
65477;SDS011;53678;39.642;22.430;2023-03-01T12:40:15;17.75;;;9.15;;
65477;SDS011;53678;39.642;22.430;2023-03-01T12:45:45;18.52;;;9.63;;
65477;SDS011;53678;39.642;22.430;2023-03-01T12:51:26;19.02;;;9.43;;
65477;SDS011;53678;39.642;22.430;2023-03-01T12:53:55;20.02;;;8.93;;
65477;SDS011;53678;39.642;22.430;2023-03-01T12:56:24;18.98;;;9.48;;
65477;SDS011;53678;39.642;22.430;2023-03-01T13:09:35;21.58;;;9.55;;
65477;SDS011;53678;39.642;22.430;2023-03-01T13:17:49;12.15;;;7.57;;
65477;SDS011;53678;39.642;22.430;2023-03-01T13:20:18;17.67;;;9.07;;
65477;SDS011;53678;39.642;22.430;2023-03-01T13:22:46;12.38;;;7.57;;
65477;SDS011;53678;39.642;22.430;2023-03-01T13:25:17;14.50;;;7.82;;
65477;SDS011;53678;39.642;22.430;2023-03-01T13:27:45;16.75;;;8.63;;
65477;SDS011;53678;39.642;22.430;2023-03-01T13:35:44;15.05;;;7.65;;
65477;SDS011;53678;39.642;22.430;2023-03-01T13:41:07;14.02;;;8.13;;
65477;SDS011;53678;39.642;22.430;2023-03-01T13:43:37;16.67;;;7.82;;
65477;SDS011;53678;39.642;22.430;2023-03-01T13:46:21;16.95;;;7.85;;
65477;SDS011;53678;39.642;22.430;2023-03-01T13:48:57;18.90;;;7.82;;
65477;SDS011;53678;39.642;22.430;2023-03-01T13:51:25;15.57;;;7.68;;
65477;SDS011;53678;39.642;22.430;2023-03-01T13:53:52;14.73;;;6.95;;
65477;SDS011;53678;39.642;22.430;2023-03-01T13:56:33;11.70;;;6.68;;
65477;SDS011;53678;39.642;22.430;2023-03-01T13:59:04;11.52;;;6.60;;
65477;SDS011;53678;39.642;22.430;2023-03-01T14:01:38;14.40;;;7.10;;
65477;SDS011;53678;39.642;22.430;2023-03-01T14:04:16;12.98;;;6.38;;
65477;SDS011;53678;39.642;22.430;2023-03-01T14:07:12;11.30;;;5.80;;
65477;SDS011;53678;39.642;22.430;2023-03-01T14:09:42;10.07;;;5.53;;
65477;SDS011;53678;39.642;22.430;2023-03-01T14:15:13;11.48;;;5.80;;
65477;SDS011;53678;39.642;22.430;2023-03-01T14:20:12;6.78;;;4.53;;
65477;SDS011;53678;39.642;22.430;2023-03-01T14:22:47;13.27;;;5.88;;
65477;SDS011;53678;39.642;22.430;2023-03-01T14:27:45;8.80;;;5.07;;
65477;SDS011;53678;39.642;22.430;2023-03-01T14:30:21;9.13;;;4.50;;
65477;SDS011;53678;39.642;22.430;2023-03-01T14:33:03;8.82;;;4.40;;
65477;SDS011;53678;39.642;22.430;2023-03-01T14:35:34;8.77;;;4.70;;
65477;SDS011;53678;39.642;22.430;2023-03-01T14:38:01;9.60;;;5.53;;
65477;SDS011;53678;39.642;22.430;2023-03-01T14:40:28;9.40;;;5.82;;
65477;SDS011;53678;39.642;22.430;2023-03-01T14:43:00;9.13;;;4.93;;
65477;SDS011;53678;39.642;22.430;2023-03-01T14:45:33;8.98;;;5.70;;
65477;SDS011;53678;39.642;22.430;2023-03-01T14:47:59;8.40;;;4.70;;
65477;SDS011;53678;39.642;22.430;2023-03-01T14:50:28;8.77;;;5.65;;
65477;SDS011;53678;39.642;22.430;2023-03-01T14:52:59;10.20;;;5.60;;
65477;SDS011;53678;39.642;22.430;2023-03-01T14:58:02;13.43;;;6.63;;
65477;SDS011;53678;39.642;22.430;2023-03-01T15:00:30;13.15;;;6.28;;
65477;SDS011;53678;39.642;22.430;2023-03-01T15:03:00;9.98;;;5.70;;
65477;SDS011;53678;39.642;22.430;2023-03-01T15:05:35;11.68;;;6.70;;
65477;SDS011;53678;39.642;22.430;2023-03-01T15:08:01;11.68;;;6.25;;
65477;SDS011;53678;39.642;22.430;2023-03-01T15:10:33;11.15;;;6.00;;
65477;SDS011;53678;39.642;22.430;2023-03-01T15:13:13;16.23;;;7.85;;
65477;SDS011;53678;39.642;22.430;2023-03-01T15:15:50;10.75;;;6.07;;
65477;SDS011;53678;39.642;22.430;2023-03-01T15:18:19;12.25;;;6.90;;
65477;SDS011;53678;39.642;22.430;2023-03-01T15:20:47;12.20;;;6.75;;
65477;SDS011;53678;39.642;22.430;2023-03-01T15:23:19;12.88;;;6.63;;
65477;SDS011;53678;39.642;22.430;2023-03-01T15:25:48;11.82;;;6.50;;
65477;SDS011;53678;39.642;22.430;2023-03-01T15:28:25;16.75;;;7.65;;
65477;SDS011;53678;39.642;22.430;2023-03-01T15:36:33;13.88;;;6.43;;
65477;SDS011;53678;39.642;22.430;2023-03-01T15:39:26;13.73;;;7.03;;
65477;SDS011;53678;39.642;22.430;2023-03-01T15:42:09;13.10;;;7.45;;
65477;SDS011;53678;39.642;22.430;2023-03-01T15:47:48;11.18;;;7.22;;
65477;SDS011;53678;39.642;22.430;2023-03-01T15:52:52;14.65;;;7.32;;
65477;SDS011;53678;39.642;22.430;2023-03-01T15:55:26;16.08;;;7.15;;
65477;SDS011;53678;39.642;22.430;2023-03-01T16:00:26;10.73;;;7.30;;
65477;SDS011;53678;39.642;22.430;2023-03-01T16:02:52;13.95;;;7.25;;
65477;SDS011;53678;39.642;22.430;2023-03-01T16:05:20;10.18;;;6.38;;
65477;SDS011;53678;39.642;22.430;2023-03-01T16:07:49;12.65;;;7.65;;
65477;SDS011;53678;39.642;22.430;2023-03-01T16:10:15;15.25;;;7.70;;
65477;SDS011;53678;39.642;22.430;2023-03-01T16:12:41;15.10;;;8.15;;
65477;SDS011;53678;39.642;22.430;2023-03-01T16:15:18;17.83;;;7.93;;
65477;SDS011;53678;39.642;22.430;2023-03-01T16:17:53;14.93;;;7.55;;
65477;SDS011;53678;39.642;22.430;2023-03-01T16:20:20;17.65;;;7.30;;
65477;SDS011;53678;39.642;22.430;2023-03-01T16:22:47;18.45;;;7.70;;
65477;SDS011;53678;39.642;22.430;2023-03-01T16:25:14;14.27;;;7.65;;
65477;SDS011;53678;39.642;22.430;2023-03-01T16:27:42;14.98;;;8.45;;
65477;SDS011;53678;39.642;22.430;2023-03-01T16:30:08;16.95;;;7.75;;
65477;SDS011;53678;39.642;22.430;2023-03-01T16:32:38;16.95;;;8.57;;
65477;SDS011;53678;39.642;22.430;2023-03-01T16:35:05;15.90;;;8.00;;
65477;SDS011;53678;39.642;22.430;2023-03-01T16:37:32;20.00;;;9.50;;
65477;SDS011;53678;39.642;22.430;2023-03-01T16:39:59;14.27;;;7.95;;
65477;SDS011;53678;39.642;22.430;2023-03-01T16:42:25;16.58;;;7.25;;
65477;SDS011;53678;39.642;22.430;2023-03-01T16:44:55;19.17;;;8.30;;
65477;SDS011;53678;39.642;22.430;2023-03-01T16:47:21;12.07;;;7.15;;
65477;SDS011;53678;39.642;22.430;2023-03-01T16:49:47;14.48;;;8.05;;
65477;SDS011;53678;39.642;22.430;2023-03-01T16:52:17;18.42;;;9.95;;
65477;SDS011;53678;39.642;22.430;2023-03-01T16:54:42;17.13;;;8.77;;
65477;SDS011;53678;39.642;22.430;2023-03-01T16:57:08;15.80;;;7.78;;
65477;SDS011;53678;39.642;22.430;2023-03-01T16:59:34;13.10;;;7.78;;